createdAt,value
2018-11-04T00:00:13.154Z,84.50
2018-11-04T00:00:51.367Z,84.50
2018-11-04T00:01:23.976Z,84.60
2018-11-04T00:01:56.548Z,84.70
2018-11-04T00:02:29.176Z,84.90
2018-11-04T00:03:01.744Z,85.00
2018-11-04T00:03:34.322Z,85.10
2018-11-04T00:04:06.926Z,85.30
2018-11-04T00:04:39.475Z,85.40
2018-11-04T00:05:12.376Z,85.50
2018-11-04T00:05:44.983Z,85.40
2018-11-04T00:06:17.596Z,85.30
2018-11-04T00:06:50.219Z,85.40
2018-11-04T00:07:22.807Z,85.30
2018-11-04T00:07:55.454Z,85.30
2018-11-04T00:08:28.036Z,85.70
2018-11-04T00:09:00.660Z,85.60
2018-11-04T00:09:33.238Z,85.50
2018-11-04T00:10:06.702Z,85.50
2018-11-04T00:10:39.267Z,85.30
2018-11-04T00:11:11.886Z,85.20
2018-11-04T00:11:45.103Z,85.30
2018-11-04T00:12:17.679Z,85.30
2018-11-04T00:12:50.243Z,85.10
2018-11-04T00:13:22.941Z,84.80
2018-11-04T00:13:55.442Z,84.80
2018-11-04T00:14:28.021Z,85.00
2018-11-04T00:15:00.703Z,85.10
2018-11-04T00:15:33.238Z,85.20
2018-11-04T00:16:05.861Z,85.50
2018-11-04T00:16:38.468Z,85.60
2018-11-04T00:17:11.046Z,85.60
2018-11-04T00:17:43.623Z,85.60
2018-11-04T00:18:16.195Z,85.50
2018-11-04T00:18:48.824Z,85.60
2018-11-04T00:19:21.398Z,85.40
2018-11-04T00:19:53.999Z,85.40
2018-11-04T00:20:26.566Z,85.60
2018-11-04T00:20:59.135Z,85.60
2018-11-04T00:21:31.955Z,85.50
2018-11-04T00:22:04.770Z,85.60
2018-11-04T00:22:37.372Z,85.70
2018-11-04T00:23:09.975Z,85.60
2018-11-04T00:23:42.531Z,85.40
2018-11-04T00:24:15.148Z,85.30
2018-11-04T00:24:47.696Z,85.20
2018-11-04T00:25:20.297Z,85.40
2018-11-04T00:25:52.858Z,85.60
2018-11-04T00:26:25.506Z,85.10
2018-11-04T00:26:58.121Z,84.80
2018-11-04T00:27:30.715Z,84.80
2018-11-04T00:28:03.360Z,85.00
2018-11-04T00:28:35.942Z,85.10
2018-11-04T00:29:08.504Z,85.30
2018-11-04T00:29:41.123Z,85.60
2018-11-04T00:30:14.711Z,85.60
2018-11-04T00:30:47.272Z,85.50
2018-11-04T00:31:19.872Z,85.40
2018-11-04T00:31:52.456Z,85.40
2018-11-04T00:32:25.050Z,85.50
2018-11-04T00:32:57.678Z,85.80
2018-11-04T00:33:30.228Z,85.80
2018-11-04T00:34:02.848Z,85.80
2018-11-04T00:34:35.445Z,85.90
2018-11-04T00:35:08.339Z,86.10
2018-11-04T00:35:40.895Z,86.10
2018-11-04T00:36:13.480Z,86.10
2018-11-04T00:36:46.074Z,86.20
2018-11-04T00:37:18.703Z,86.30
2018-11-04T00:37:51.266Z,86.30
2018-11-04T00:38:23.885Z,86.00
2018-11-04T00:38:56.479Z,86.30
2018-11-04T00:39:29.082Z,86.40
2018-11-04T00:40:01.641Z,86.50
2018-11-04T00:40:34.238Z,86.40
2018-11-04T00:41:06.937Z,86.30
2018-11-04T00:41:39.522Z,86.20
2018-11-04T00:42:12.087Z,86.30
2018-11-04T00:42:44.684Z,86.20
2018-11-04T00:43:17.279Z,86.30
2018-11-04T00:43:49.897Z,86.40
2018-11-04T00:44:22.499Z,86.00
2018-11-04T00:44:55.071Z,86.10
2018-11-04T00:45:27.802Z,86.00
2018-11-04T00:46:00.243Z,86.10
2018-11-04T00:46:32.898Z,86.20
2018-11-04T00:47:05.548Z,86.10
2018-11-04T00:47:38.894Z,86.10
2018-11-04T00:48:11.489Z,86.10
2018-11-04T00:48:44.093Z,85.80
2018-11-04T00:49:16.717Z,85.70
2018-11-04T00:49:49.275Z,85.90
2018-11-04T00:50:21.845Z,86.10
2018-11-04T00:50:54.481Z,86.10
2018-11-04T00:51:27.099Z,86.10
2018-11-04T00:51:59.671Z,86.00
2018-11-04T00:52:32.239Z,86.00
2018-11-04T00:53:05.372Z,86.10
2018-11-04T00:53:37.956Z,86.00
2018-11-04T00:54:10.560Z,86.00
2018-11-04T00:54:43.163Z,86.00
2018-11-04T00:55:15.735Z,86.10
2018-11-04T00:55:53.307Z,86.00
2018-11-04T00:56:25.907Z,86.00
2018-11-04T00:56:58.512Z,86.10
2018-11-04T00:57:31.102Z,86.30
2018-11-04T00:58:03.704Z,86.50
2018-11-04T00:58:36.328Z,86.50
2018-11-04T00:59:08.915Z,86.50
2018-11-04T00:59:41.515Z,86.40
2018-11-04T01:00:16.482Z,86.30
2018-11-04T01:00:49.079Z,86.20
2018-11-04T01:01:21.637Z,86.10
2018-11-04T01:01:54.235Z,86.20
2018-11-04T01:02:26.811Z,86.30
2018-11-04T01:02:59.412Z,86.30
2018-11-04T01:03:31.987Z,86.20
2018-11-04T01:04:04.655Z,87.00
2018-11-04T01:04:37.213Z,86.40
2018-11-04T01:05:10.157Z,86.40
2018-11-04T01:05:42.792Z,86.60
2018-11-04T01:06:15.355Z,86.40
2018-11-04T01:06:47.927Z,86.20
2018-11-04T01:07:20.486Z,86.20
2018-11-04T01:07:53.098Z,86.30
2018-11-04T01:08:25.719Z,86.20
2018-11-04T01:08:58.344Z,86.20
2018-11-04T01:09:31.476Z,86.50
2018-11-04T01:10:04.964Z,86.70
2018-11-04T01:10:37.560Z,86.50
2018-11-04T01:11:10.163Z,86.50
2018-11-04T01:11:42.728Z,86.50
2018-11-04T01:12:15.320Z,86.70
2018-11-04T01:12:47.883Z,86.70
2018-11-04T01:13:20.488Z,86.80
2018-11-04T01:13:53.080Z,87.10
2018-11-04T01:14:25.644Z,87.10
2018-11-04T01:14:58.250Z,87.10
2018-11-04T01:15:30.834Z,87.20
2018-11-04T01:16:03.450Z,87.20
2018-11-04T01:16:36.051Z,87.20
2018-11-04T01:17:08.694Z,87.40
2018-11-04T01:17:47.986Z,87.40
2018-11-04T01:18:20.550Z,87.70
2018-11-04T01:18:53.130Z,87.10
2018-11-04T01:19:25.678Z,87.10
2018-11-04T01:19:58.347Z,87.20
2018-11-04T01:20:30.918Z,87.20
2018-11-04T01:21:03.522Z,87.30
2018-11-04T01:21:36.117Z,87.40
2018-11-04T01:22:08.744Z,87.50
2018-11-04T01:22:41.567Z,87.50
2018-11-04T01:23:14.107Z,87.70
2018-11-04T01:23:46.667Z,87.80
2018-11-04T01:24:19.247Z,87.80
2018-11-04T01:24:51.878Z,87.70
2018-11-04T01:25:24.462Z,87.80
2018-11-04T01:25:57.035Z,87.80
2018-11-04T01:26:29.603Z,88.10
2018-11-04T01:27:02.175Z,87.40
2018-11-04T01:27:34.843Z,87.60
2018-11-04T01:28:07.476Z,87.60
2018-11-04T01:28:40.070Z,87.60
2018-11-04T01:29:12.714Z,87.70
2018-11-04T01:29:45.303Z,87.70
2018-11-04T01:30:17.959Z,87.70
2018-11-04T01:30:50.462Z,87.70
2018-11-04T01:31:23.031Z,87.70
2018-11-04T01:31:55.624Z,87.80
2018-11-04T01:32:28.207Z,87.80
2018-11-04T01:33:00.811Z,87.80
2018-11-04T01:33:33.409Z,87.70
2018-11-04T01:34:06.095Z,87.70
2018-11-04T01:34:38.696Z,87.60
2018-11-04T01:35:11.295Z,87.60
2018-11-04T01:35:43.858Z,87.70
2018-11-04T01:36:16.683Z,87.70
2018-11-04T01:36:49.234Z,87.60
2018-11-04T01:37:21.856Z,87.70
2018-11-04T01:37:54.437Z,87.80
2018-11-04T01:38:27.014Z,87.70
2018-11-04T01:38:59.594Z,87.80
2018-11-04T01:39:32.152Z,87.90
2018-11-04T01:40:05.604Z,87.90
2018-11-04T01:40:38.166Z,87.60
2018-11-04T01:41:10.735Z,87.60
2018-11-04T01:41:43.345Z,87.60
2018-11-04T01:42:15.915Z,87.60
2018-11-04T01:42:48.487Z,87.70
2018-11-04T01:43:21.050Z,87.60
2018-11-04T01:43:53.696Z,87.40
2018-11-04T01:44:26.282Z,87.50
2018-11-04T01:44:58.851Z,87.40
2018-11-04T01:45:31.434Z,87.40
2018-11-04T01:46:04.077Z,87.30
2018-11-04T01:46:36.678Z,87.40
2018-11-04T01:47:09.275Z,87.40
2018-11-04T01:47:41.848Z,87.50
2018-11-04T01:48:14.436Z,87.60
2018-11-04T01:48:47.022Z,87.60
2018-11-04T01:49:19.611Z,87.40
2018-11-04T01:49:52.215Z,87.30
2018-11-04T01:50:24.782Z,87.30
2018-11-04T01:50:57.400Z,87.40
2018-11-04T01:51:29.970Z,87.30
2018-11-04T01:52:02.561Z,87.40
2018-11-04T01:52:35.123Z,87.50
2018-11-04T01:53:07.740Z,87.70
2018-11-04T01:53:40.326Z,87.60
2018-11-04T01:54:12.987Z,87.60
2018-11-04T01:54:45.615Z,87.70
2018-11-04T01:55:18.203Z,87.80
2018-11-04T01:55:50.783Z,87.90
2018-11-04T01:56:23.384Z,87.90
2018-11-04T01:56:55.951Z,88.00
2018-11-04T01:57:28.510Z,88.00
2018-11-04T01:58:01.095Z,87.90
2018-11-04T01:58:33.658Z,88.10
2018-11-04T01:59:06.255Z,88.10
2018-11-04T01:59:38.822Z,88.20
2018-11-04T02:00:13.779Z,88.10
2018-11-04T02:00:46.343Z,88.00
2018-11-04T02:01:18.931Z,87.90
2018-11-04T02:01:51.528Z,88.00
2018-11-04T02:02:24.144Z,88.10
2018-11-04T02:02:56.715Z,88.00
2018-11-04T02:03:29.307Z,88.10
2018-11-04T02:04:01.887Z,87.90
2018-11-04T02:04:34.667Z,87.80
2018-11-04T02:05:08.083Z,88.00
2018-11-04T02:05:40.671Z,88.00
2018-11-04T02:06:13.258Z,88.00
2018-11-04T02:06:45.814Z,87.90
2018-11-04T02:07:18.446Z,87.90
2018-11-04T02:07:51.048Z,87.80
2018-11-04T02:08:23.632Z,87.90
2018-11-04T02:08:56.287Z,87.90
2018-11-04T02:09:28.884Z,88.00
2018-11-04T02:10:01.455Z,87.80
2018-11-04T02:10:34.019Z,87.90
2018-11-04T02:11:06.642Z,88.10
2018-11-04T02:11:39.306Z,88.10
2018-11-04T02:12:11.956Z,88.10
2018-11-04T02:12:44.523Z,88.20
2018-11-04T02:13:17.086Z,88.20
2018-11-04T02:13:49.678Z,88.10
2018-11-04T02:14:22.239Z,88.10
2018-11-04T02:14:54.836Z,88.10
2018-11-04T02:15:27.387Z,88.10
2018-11-04T02:16:00.004Z,88.20
2018-11-04T02:16:32.626Z,88.30
2018-11-04T02:17:05.223Z,88.30
2018-11-04T02:17:38.050Z,88.30
2018-11-04T02:18:10.613Z,88.30
2018-11-04T02:18:43.194Z,88.40
2018-11-04T02:19:15.779Z,88.30
2018-11-04T02:19:48.386Z,88.40
2018-11-04T02:20:21.016Z,88.50
2018-11-04T02:20:53.587Z,88.50
2018-11-04T02:21:26.160Z,88.50
2018-11-04T02:21:58.803Z,88.50
2018-11-04T02:22:31.393Z,88.60
2018-11-04T02:23:04.042Z,88.60
2018-11-04T02:23:36.647Z,88.60
2018-11-04T02:24:09.307Z,88.60
2018-11-04T02:24:41.876Z,88.70
2018-11-04T02:25:14.442Z,88.70
2018-11-04T02:25:47.064Z,88.70
2018-11-04T02:26:19.675Z,88.60
2018-11-04T02:26:52.289Z,88.70
2018-11-04T02:27:24.966Z,88.70
2018-11-04T02:27:57.564Z,88.80
2018-11-04T02:28:30.166Z,88.70
2018-11-04T02:29:02.725Z,88.90
2018-11-04T02:29:35.306Z,89.00
2018-11-04T02:30:10.716Z,89.00
2018-11-04T02:30:43.316Z,88.90
2018-11-04T02:31:15.914Z,89.00
2018-11-04T02:31:48.482Z,89.20
2018-11-04T02:32:21.134Z,89.30
2018-11-04T02:32:53.735Z,89.30
2018-11-04T02:33:26.310Z,89.30
2018-11-04T02:33:58.912Z,89.30
2018-11-04T02:34:31.494Z,89.20
2018-11-04T02:35:04.778Z,89.20
2018-11-04T02:35:37.338Z,89.30
2018-11-04T02:36:09.898Z,89.20
2018-11-04T02:36:42.483Z,89.10
2018-11-04T02:37:15.107Z,89.10
2018-11-04T02:37:47.707Z,89.10
2018-11-04T02:38:20.708Z,89.20
2018-11-04T02:38:53.263Z,89.30
2018-11-04T02:39:25.843Z,89.20
2018-11-04T02:39:58.484Z,89.20
2018-11-04T02:40:31.042Z,89.10
2018-11-04T02:41:03.969Z,89.70
2018-11-04T02:41:36.836Z,89.30
2018-11-04T02:42:09.419Z,89.20
2018-11-04T02:42:42.036Z,89.20
2018-11-04T02:43:14.646Z,89.30
2018-11-04T02:43:47.283Z,89.30
2018-11-04T02:44:19.864Z,89.30
2018-11-04T02:44:52.443Z,89.20
2018-11-04T02:45:25.036Z,89.30
2018-11-04T02:45:57.661Z,89.50
2018-11-04T02:46:30.214Z,89.60
2018-11-04T02:47:02.849Z,89.60
2018-11-04T02:47:35.865Z,89.60
2018-11-04T02:48:08.467Z,89.50
2018-11-04T02:48:41.072Z,89.50
2018-11-04T02:49:13.676Z,89.50
2018-11-04T02:49:46.275Z,89.30
2018-11-04T02:50:18.870Z,89.30
2018-11-04T02:50:51.464Z,89.40
2018-11-04T02:51:24.027Z,89.40
2018-11-04T02:51:56.625Z,89.50
2018-11-04T02:52:29.187Z,89.40
2018-11-04T02:53:01.759Z,89.40
2018-11-04T02:53:34.326Z,89.30
2018-11-04T02:54:06.886Z,89.30
2018-11-04T02:54:39.527Z,89.30
2018-11-04T02:55:12.104Z,89.30
2018-11-04T02:55:44.659Z,89.40
2018-11-04T02:56:17.270Z,89.50
2018-11-04T02:56:49.863Z,89.50
2018-11-04T02:57:22.450Z,89.50
2018-11-04T02:57:55.042Z,89.50
2018-11-04T02:58:27.658Z,89.50
2018-11-04T02:59:06.996Z,89.40
2018-11-04T02:59:39.594Z,89.60
2018-11-04T03:00:13.955Z,89.50
2018-11-04T03:00:46.567Z,89.50
2018-11-04T03:01:19.140Z,89.50
2018-11-04T03:01:51.777Z,89.40
2018-11-04T03:02:24.307Z,89.50
2018-11-04T03:02:56.876Z,89.40
2018-11-04T03:03:29.432Z,89.50
2018-11-04T03:04:02.042Z,89.40
2018-11-04T03:04:34.610Z,89.50
2018-11-04T03:05:07.807Z,89.70
2018-11-04T03:05:40.395Z,89.70
2018-11-04T03:06:13.000Z,89.60
2018-11-04T03:06:45.844Z,89.70
2018-11-04T03:07:18.441Z,89.50
2018-11-04T03:07:51.047Z,89.60
2018-11-04T03:08:23.624Z,89.40
2018-11-04T03:08:56.230Z,89.20
2018-11-04T03:09:28.827Z,89.30
2018-11-04T03:10:01.426Z,89.50
2018-11-04T03:10:33.995Z,89.60
2018-11-04T03:11:06.672Z,89.50
2018-11-04T03:11:39.287Z,89.60
2018-11-04T03:12:11.862Z,89.70
2018-11-04T03:12:44.451Z,89.70
2018-11-04T03:13:17.001Z,89.80
2018-11-04T03:13:49.571Z,90.00
2018-11-04T03:14:28.928Z,89.90
2018-11-04T03:15:01.491Z,89.90
2018-11-04T03:15:40.615Z,90.00
2018-11-04T03:16:13.214Z,90.00
2018-11-04T03:16:45.834Z,90.00
2018-11-04T03:17:18.406Z,90.00
2018-11-04T03:17:51.004Z,90.00
2018-11-04T03:18:23.574Z,90.10
2018-11-04T03:18:56.176Z,90.10
2018-11-04T03:19:28.816Z,90.00
2018-11-04T03:20:01.400Z,90.00
2018-11-04T03:20:33.955Z,89.90
2018-11-04T03:21:06.642Z,90.00
2018-11-04T03:21:39.233Z,90.00
2018-11-04T03:22:11.861Z,90.10
2018-11-04T03:22:44.460Z,90.10
2018-11-04T03:23:17.051Z,90.10
2018-11-04T03:23:49.631Z,90.00
2018-11-04T03:24:22.210Z,90.10
2018-11-04T03:24:54.799Z,90.10
2018-11-04T03:25:27.383Z,90.10
2018-11-04T03:25:59.976Z,90.10
2018-11-04T03:26:32.587Z,90.10
2018-11-04T03:27:05.175Z,90.10
2018-11-04T03:27:37.742Z,90.10
2018-11-04T03:28:12.184Z,90.20
2018-11-04T03:28:44.796Z,90.20
2018-11-04T03:29:17.362Z,90.20
2018-11-04T03:29:49.926Z,90.20
2018-11-04T03:30:22.539Z,90.20
2018-11-04T03:30:55.118Z,90.10
2018-11-04T03:31:27.688Z,90.00
2018-11-04T03:32:00.287Z,90.10
2018-11-04T03:32:32.879Z,90.10
2018-11-04T03:33:05.658Z,90.10
2018-11-04T03:33:38.214Z,90.20
2018-11-04T03:34:10.791Z,90.10
2018-11-04T03:34:43.363Z,90.10
2018-11-04T03:35:16.000Z,90.20
2018-11-04T03:35:48.579Z,90.20
2018-11-04T03:36:21.208Z,90.10
2018-11-04T03:36:53.864Z,90.20
2018-11-04T03:37:26.463Z,90.20
2018-11-04T03:37:59.078Z,90.20
2018-11-04T03:38:31.642Z,90.20
2018-11-04T03:39:06.480Z,90.20
2018-11-04T03:39:39.079Z,90.20
2018-11-04T03:40:12.671Z,90.50
2018-11-04T03:40:45.234Z,90.20
2018-11-04T03:41:17.848Z,90.20
2018-11-04T03:41:50.517Z,90.30
2018-11-04T03:42:23.075Z,90.30
2018-11-04T03:42:55.664Z,90.30
2018-11-04T03:43:28.266Z,90.40
2018-11-04T03:44:00.884Z,90.40
2018-11-04T03:44:33.463Z,90.30
2018-11-04T03:45:06.468Z,90.30
2018-11-04T03:45:39.066Z,90.30
2018-11-04T03:46:11.652Z,90.30
2018-11-04T03:46:44.252Z,90.30
2018-11-04T03:47:16.887Z,90.30
2018-11-04T03:47:49.504Z,90.30
2018-11-04T03:48:22.096Z,90.30
2018-11-04T03:48:54.697Z,90.30
2018-11-04T03:49:27.267Z,90.30
2018-11-04T03:49:59.844Z,90.40
2018-11-04T03:50:32.422Z,90.40
2018-11-04T03:51:05.247Z,90.50
2018-11-04T03:51:37.918Z,90.50
2018-11-04T03:52:10.516Z,90.40
2018-11-04T03:52:43.156Z,90.50
2018-11-04T03:53:15.727Z,90.60
2018-11-04T03:53:48.294Z,90.60
2018-11-04T03:54:20.898Z,90.70
2018-11-04T03:54:53.489Z,90.70
2018-11-04T03:55:26.063Z,90.70
2018-11-04T03:55:58.642Z,90.60
2018-11-04T03:56:31.233Z,90.60
2018-11-04T03:57:04.160Z,90.60
2018-11-04T03:57:36.790Z,90.70
2018-11-04T03:58:09.390Z,90.70
2018-11-04T03:58:41.995Z,90.60
2018-11-04T03:59:14.596Z,90.60
2018-11-04T03:59:47.228Z,90.60
2018-11-04T04:00:19.843Z,90.50
2018-11-04T04:00:52.472Z,90.50
2018-11-04T04:01:25.314Z,90.40
2018-11-04T04:01:57.910Z,90.40
2018-11-04T04:02:30.482Z,90.40
2018-11-04T04:03:03.089Z,90.50
2018-11-04T04:03:35.682Z,90.50
2018-11-04T04:04:08.248Z,90.60
2018-11-04T04:04:40.815Z,90.50
2018-11-04T04:05:13.443Z,90.50
2018-11-04T04:05:45.999Z,90.60
2018-11-04T04:06:18.598Z,90.50
2018-11-04T04:06:51.228Z,90.50
2018-11-04T04:07:23.844Z,90.50
2018-11-04T04:07:56.519Z,90.50
2018-11-04T04:08:29.143Z,90.60
2018-11-04T04:09:01.707Z,90.50
2018-11-04T04:09:34.291Z,90.50
2018-11-04T04:10:07.718Z,90.40
2018-11-04T04:10:40.356Z,90.30
2018-11-04T04:11:12.980Z,90.40
2018-11-04T04:11:45.605Z,90.50
2018-11-04T04:12:18.181Z,90.50
2018-11-04T04:12:50.751Z,90.60
2018-11-04T04:13:23.306Z,90.30
2018-11-04T04:13:55.906Z,90.30
2018-11-04T04:14:28.496Z,90.30
2018-11-04T04:15:01.059Z,90.30
2018-11-04T04:15:33.674Z,90.40
2018-11-04T04:16:06.287Z,90.40
2018-11-04T04:16:38.872Z,90.40
2018-11-04T04:17:11.459Z,90.50
2018-11-04T04:17:44.030Z,90.50
2018-11-04T04:18:16.649Z,90.50
2018-11-04T04:18:49.231Z,90.40
2018-11-04T04:19:21.819Z,90.40
2018-11-04T04:19:54.441Z,90.50
2018-11-04T04:20:27.020Z,90.50
2018-11-04T04:21:05.128Z,90.50
2018-11-04T04:21:37.727Z,90.50
2018-11-04T04:22:10.306Z,90.50
2018-11-04T04:22:42.890Z,90.50
2018-11-04T04:23:15.478Z,90.60
2018-11-04T04:23:48.055Z,90.60
2018-11-04T04:24:20.667Z,90.60
2018-11-04T04:24:53.258Z,90.70
2018-11-04T04:25:25.832Z,91.00
2018-11-04T04:25:58.432Z,90.70
2018-11-04T04:26:31.011Z,90.70
2018-11-04T04:27:03.679Z,90.80
2018-11-04T04:27:36.282Z,90.60
2018-11-04T04:28:08.892Z,90.80
2018-11-04T04:28:41.509Z,90.80
2018-11-04T04:29:14.106Z,90.90
2018-11-04T04:29:46.722Z,90.80
2018-11-04T04:30:19.285Z,90.80
2018-11-04T04:30:51.842Z,90.90
2018-11-04T04:31:24.416Z,90.90
2018-11-04T04:31:57.001Z,90.90
2018-11-04T04:32:29.611Z,90.90
2018-11-04T04:33:02.186Z,90.80
2018-11-04T04:33:34.764Z,90.90
2018-11-04T04:34:07.363Z,90.80
2018-11-04T04:34:39.931Z,90.80
2018-11-04T04:35:12.542Z,90.80
2018-11-04T04:35:45.153Z,90.80
2018-11-04T04:36:17.723Z,90.90
2018-11-04T04:36:50.287Z,90.80
2018-11-04T04:37:22.893Z,90.80
2018-11-04T04:37:55.479Z,90.80
2018-11-04T04:38:28.047Z,90.80
2018-11-04T04:39:00.650Z,90.80
2018-11-04T04:39:33.219Z,90.90
2018-11-04T04:40:05.900Z,90.90
2018-11-04T04:40:38.458Z,91.00
2018-11-04T04:41:11.034Z,91.00
2018-11-04T04:41:43.602Z,91.00
2018-11-04T04:42:16.219Z,91.00
2018-11-04T04:42:48.820Z,91.00
2018-11-04T04:43:22.031Z,91.00
2018-11-04T04:43:54.612Z,91.00
2018-11-04T04:44:27.172Z,91.00
2018-11-04T04:44:59.753Z,91.00
2018-11-04T04:45:32.350Z,91.00
2018-11-04T04:46:05.031Z,91.00
2018-11-04T04:46:37.606Z,91.00
2018-11-04T04:47:10.186Z,91.00
2018-11-04T04:47:42.786Z,91.00
2018-11-04T04:48:15.363Z,91.00
2018-11-04T04:48:48.011Z,91.00
2018-11-04T04:49:20.589Z,91.00
2018-11-04T04:49:53.217Z,90.90
2018-11-04T04:50:25.824Z,90.90
2018-11-04T04:50:58.419Z,90.90
2018-11-04T04:51:31.015Z,91.00
2018-11-04T04:52:03.648Z,91.00
2018-11-04T04:52:36.220Z,91.00
2018-11-04T04:53:08.810Z,91.00
2018-11-04T04:53:41.424Z,91.00
2018-11-04T04:54:14.048Z,91.00
2018-11-04T04:54:46.668Z,90.90
2018-11-04T04:55:19.288Z,91.00
2018-11-04T04:55:53.089Z,91.00
2018-11-04T04:56:25.700Z,90.90
2018-11-04T04:56:58.892Z,91.00
2018-11-04T04:57:31.466Z,91.00
2018-11-04T04:58:04.336Z,91.00
2018-11-04T04:58:36.927Z,91.10
2018-11-04T04:59:09.591Z,91.10
2018-11-04T04:59:42.216Z,91.10
2018-11-04T05:00:14.777Z,91.00
2018-11-04T05:00:47.386Z,91.00
2018-11-04T05:01:19.991Z,91.00
2018-11-04T05:01:52.589Z,91.10
2018-11-04T05:02:25.196Z,91.40
2018-11-04T05:02:57.796Z,91.30
2018-11-04T05:03:30.428Z,91.30
2018-11-04T05:04:03.034Z,91.40
2018-11-04T05:04:35.605Z,91.40
2018-11-04T05:05:08.268Z,91.40
2018-11-04T05:05:40.839Z,91.40
2018-11-04T05:06:13.437Z,91.50
2018-11-04T05:06:46.040Z,91.50
2018-11-04T05:07:18.634Z,91.50
2018-11-04T05:07:51.216Z,91.60
2018-11-04T05:08:23.860Z,91.90
2018-11-04T05:08:56.443Z,92.60
2018-11-04T05:09:29.050Z,92.80
2018-11-04T05:10:01.638Z,92.80
2018-11-04T05:10:34.244Z,92.80
2018-11-04T05:11:06.810Z,92.80
2018-11-04T05:11:39.386Z,92.80
2018-11-04T05:12:11.962Z,92.90
2018-11-04T05:12:44.511Z,92.80
2018-11-04T05:13:17.122Z,92.80
2018-11-04T05:13:49.736Z,92.80
2018-11-04T05:14:22.340Z,93.10
2018-11-04T05:14:54.895Z,93.60
2018-11-04T05:15:27.449Z,93.80
2018-11-04T05:16:00.070Z,93.80
2018-11-04T05:16:32.643Z,93.80
2018-11-04T05:17:05.655Z,93.80
2018-11-04T05:17:38.326Z,93.90
2018-11-04T05:18:10.928Z,93.90
2018-11-04T05:18:43.495Z,94.10
2018-11-04T05:19:16.069Z,93.80
2018-11-04T05:19:48.646Z,93.80
2018-11-04T05:20:21.248Z,93.80
2018-11-04T05:20:53.873Z,94.10
2018-11-04T05:21:26.508Z,94.90
2018-11-04T05:21:59.129Z,95.10
2018-11-04T05:22:31.798Z,95.30
2018-11-04T05:23:04.479Z,95.20
2018-11-04T05:23:37.070Z,95.10
2018-11-04T05:24:09.671Z,95.20
2018-11-04T05:24:42.284Z,95.20
2018-11-04T05:25:14.871Z,95.30
2018-11-04T05:25:47.462Z,95.20
2018-11-04T05:26:20.057Z,95.30
2018-11-04T05:26:52.662Z,95.10
2018-11-04T05:27:25.245Z,95.10
2018-11-04T05:27:57.876Z,95.10
2018-11-04T05:28:30.481Z,95.00
2018-11-04T05:29:03.095Z,95.00
2018-11-04T05:29:35.862Z,95.10
2018-11-04T05:30:09.895Z,95.10
2018-11-04T05:30:42.450Z,95.00
2018-11-04T05:31:15.058Z,95.00
2018-11-04T05:31:47.630Z,95.00
2018-11-04T05:32:20.222Z,94.90
2018-11-04T05:32:52.795Z,94.90
2018-11-04T05:33:25.436Z,94.90
2018-11-04T05:33:58.015Z,95.10
2018-11-04T05:34:30.591Z,95.10
2018-11-04T05:35:03.230Z,95.00
2018-11-04T05:35:35.794Z,94.80
2018-11-04T05:36:08.374Z,94.80
2018-11-04T05:36:40.951Z,94.80
2018-11-04T05:37:13.520Z,94.80
2018-11-04T05:37:46.122Z,94.70
2018-11-04T05:38:18.726Z,94.80
2018-11-04T05:38:51.528Z,94.80
2018-11-04T05:39:24.102Z,94.60
2018-11-04T05:39:56.693Z,94.30
2018-11-04T05:40:29.354Z,94.30
2018-11-04T05:41:01.962Z,94.30
2018-11-04T05:41:34.586Z,94.20
2018-11-04T05:42:07.147Z,94.20
2018-11-04T05:42:39.763Z,94.20
2018-11-04T05:43:12.355Z,94.40
2018-11-04T05:43:44.959Z,94.40
2018-11-04T05:44:17.526Z,94.40
2018-11-04T05:44:50.124Z,94.30
2018-11-04T05:45:22.710Z,94.10
2018-11-04T05:45:55.279Z,94.10
2018-11-04T05:46:27.851Z,94.30
2018-11-04T05:47:00.419Z,94.20
2018-11-04T05:47:33.013Z,94.40
2018-11-04T05:48:05.651Z,94.20
2018-11-04T05:48:38.281Z,94.00
2018-11-04T05:49:10.855Z,94.00
2018-11-04T05:49:43.418Z,94.00
2018-11-04T05:50:16.000Z,93.90
2018-11-04T05:50:48.579Z,93.90
2018-11-04T05:51:21.199Z,93.90
2018-11-04T05:51:53.795Z,93.90
2018-11-04T05:52:26.412Z,93.80
2018-11-04T05:52:59.010Z,93.70
2018-11-04T05:53:31.619Z,93.60
2018-11-04T05:54:04.506Z,93.60
2018-11-04T05:54:37.079Z,93.70
2018-11-04T05:55:09.659Z,93.70
2018-11-04T05:55:42.241Z,93.50
2018-11-04T05:56:14.818Z,93.70
2018-11-04T05:56:47.379Z,93.70
2018-11-04T05:57:19.982Z,93.60
2018-11-04T05:57:52.542Z,93.60
2018-11-04T05:58:25.322Z,93.80
2018-11-04T05:58:57.887Z,93.90
2018-11-04T05:59:30.487Z,93.90
2018-11-04T06:00:03.242Z,93.90
2018-11-04T06:00:35.812Z,93.80
2018-11-04T06:01:08.391Z,93.90
2018-11-04T06:01:41.025Z,94.00
2018-11-04T06:02:13.639Z,93.90
2018-11-04T06:02:46.222Z,93.90
2018-11-04T06:03:18.876Z,93.90
2018-11-04T06:03:51.497Z,94.00
2018-11-04T06:04:24.059Z,94.00
2018-11-04T06:04:56.666Z,94.00
2018-11-04T06:05:29.257Z,94.20
2018-11-04T06:06:01.847Z,94.10
2018-11-04T06:06:34.416Z,94.10
2018-11-04T06:07:07.104Z,94.10
2018-11-04T06:07:39.967Z,94.20
2018-11-04T06:08:12.579Z,94.30
2018-11-04T06:08:45.179Z,94.30
2018-11-04T06:09:17.777Z,94.30
2018-11-04T06:09:50.359Z,94.40
2018-11-04T06:10:22.964Z,94.40
2018-11-04T06:10:55.556Z,94.40
2018-11-04T06:11:28.161Z,94.30
2018-11-04T06:12:00.714Z,94.30
2018-11-04T06:12:33.304Z,94.40
2018-11-04T06:13:05.935Z,94.40
2018-11-04T06:13:38.530Z,94.30
2018-11-04T06:14:11.091Z,94.30
2018-11-04T06:14:43.722Z,94.40
2018-11-04T06:15:16.332Z,94.40
2018-11-04T06:15:48.934Z,94.40
2018-11-04T06:16:21.515Z,94.40
2018-11-04T06:16:54.104Z,94.40
2018-11-04T06:17:26.682Z,94.30
2018-11-04T06:17:59.265Z,94.20
2018-11-04T06:18:31.828Z,94.20
2018-11-04T06:19:04.489Z,94.20
2018-11-04T06:19:37.196Z,94.10
2018-11-04T06:20:11.012Z,94.20
2018-11-04T06:20:43.611Z,94.30
2018-11-04T06:21:16.221Z,94.20
2018-11-04T06:21:48.889Z,94.20
2018-11-04T06:22:21.460Z,94.10
2018-11-04T06:22:54.059Z,94.00
2018-11-04T06:23:26.654Z,94.10
2018-11-04T06:23:59.311Z,94.10
2018-11-04T06:24:31.906Z,94.10
2018-11-04T06:25:05.092Z,94.40
2018-11-04T06:25:37.707Z,94.10
2018-11-04T06:26:10.302Z,94.20
2018-11-04T06:26:42.893Z,94.40
2018-11-04T06:27:15.461Z,94.10
2018-11-04T06:27:48.072Z,94.10
2018-11-04T06:28:20.639Z,94.00
2018-11-04T06:28:53.256Z,94.00
2018-11-04T06:29:25.822Z,94.00
2018-11-04T06:29:58.403Z,93.90
2018-11-04T06:30:31.017Z,94.00
2018-11-04T06:31:03.723Z,94.00
2018-11-04T06:31:36.348Z,94.00
2018-11-04T06:32:08.980Z,94.00
2018-11-04T06:32:42.419Z,94.00
2018-11-04T06:33:14.982Z,94.10
2018-11-04T06:33:47.547Z,93.90
2018-11-04T06:34:20.281Z,94.00
2018-11-04T06:34:52.873Z,94.00
2018-11-04T06:35:25.493Z,94.00
2018-11-04T06:35:58.078Z,94.00
2018-11-04T06:36:30.693Z,94.00
2018-11-04T06:37:03.294Z,94.00
2018-11-04T06:37:36.327Z,93.90
2018-11-04T06:38:08.932Z,94.00
2018-11-04T06:38:41.560Z,94.00
2018-11-04T06:39:14.174Z,94.00
2018-11-04T06:39:46.764Z,94.00
2018-11-04T06:40:19.359Z,93.90
2018-11-04T06:40:51.965Z,94.00
2018-11-04T06:41:24.575Z,94.00
2018-11-04T06:41:57.149Z,94.10
2018-11-04T06:42:29.711Z,94.00
2018-11-04T06:43:02.322Z,94.10
2018-11-04T06:43:34.874Z,94.10
2018-11-04T06:44:08.022Z,94.10
2018-11-04T06:44:40.644Z,94.20
2018-11-04T06:45:13.230Z,94.10
2018-11-04T06:45:45.819Z,93.90
2018-11-04T06:46:18.406Z,93.80
2018-11-04T06:46:51.026Z,93.80
2018-11-04T06:47:23.593Z,93.80
2018-11-04T06:47:56.179Z,93.80
2018-11-04T06:48:28.792Z,93.70
2018-11-04T06:49:01.383Z,93.70
2018-11-04T06:49:33.942Z,93.50
2018-11-04T06:50:08.669Z,93.30
2018-11-04T06:50:41.294Z,93.40
2018-11-04T06:51:13.935Z,93.30
2018-11-04T06:51:46.559Z,93.30
2018-11-04T06:52:19.142Z,93.20
2018-11-04T06:52:51.707Z,93.30
2018-11-04T06:53:24.266Z,93.50
2018-11-04T06:53:56.866Z,93.40
2018-11-04T06:54:29.442Z,93.50
2018-11-04T06:55:02.049Z,93.50
2018-11-04T06:55:34.618Z,93.50
2018-11-04T06:56:07.228Z,93.60
2018-11-04T06:56:39.809Z,93.70
2018-11-04T06:57:12.393Z,93.90
2018-11-04T06:57:44.967Z,93.90
2018-11-04T06:58:17.548Z,93.90
2018-11-04T06:58:50.368Z,93.90
2018-11-04T06:59:22.962Z,93.80
2018-11-04T06:59:55.629Z,93.80
2018-11-04T07:00:28.210Z,93.80
2018-11-04T07:01:00.836Z,93.90